Terminal Aerodrome Forecast
Issued by NWS Albany, NY

Home | Current Version | Previous Version | Text Only | Print | Product List | Glossary On
Versions: 1 2 3 4 5 6 7 8 9 10 11 12 13 14 15 16 17 18 19 20 21 22 23 24
249
FTUS41 KALY 281921 AAA
TAFPOU
TAF AMD
KPOU 281921Z 2819/2918 06005KT 6SM -SHRA BR OVC008
      TEMPO 2819/2822 1 1/2SM SHRA BR SCT008 OVC035
     FM290300 VRB03KT 1 1/2SM BR VCSH BKN010
     FM290500 35004KT P6SM OVC010
     FM291300 35008KT P6SM BKN025
     FM291400 34010KT P6SM SCT035=

USA.gov is the U.S. government's official web portal to all federal, state and local government web resources and services.